Time;durP1;ratioP1;P1;durP2;ratioP2;P2;SDS_P1;SDS_P2;PMS_P1;PMS_P2;Temp;Humidity;BMP_temperature;BMP_pressure;BME280_temperature;BME280_humidity;BME280_pressure;Samples;Min_cycle;Max_cycle;Signal;HPM_P1;HPM_P2
2023/04/30 00:06:12;;;;;;;1.58;0.80;;;;;;;20.32;45.21;102075.06;19868097;29;20129;-70
2023/04/30 00:16:14;;;;;;;0.90;0.57;;;;;;;20.29;45.11;102078.03;19866571;29;20054;-70
2023/04/30 00:26:15;;;;;;;1.42;0.77;;;;;;;20.26;44.93;102075.56;19868414;29;20055;-70
2023/04/30 00:36:21;;;;;;;0.60;0.60;;;;;;;20.23;44.93;102063.16;19866848;29;20069;-69
2023/04/30 00:46:23;;;;;;;1.00;0.63;;;;;;;20.21;44.70;102069.66;19867137;29;20568;-70
2023/04/30 00:56:25;;;;;;;0.90;0.60;;;;;;;20.18;44.57;102081.59;19856513;29;20501;-69
2023/04/30 01:06:27;;;;;;;0.82;0.70;;;;;;;20.10;44.54;102068.69;19851509;29;20446;-70
2023/04/30 01:16:35;;;;;;;1.45;0.70;;;;;;;20.12;44.38;102082.94;19885184;29;20058;-70
2023/04/30 01:27:30;;;;;;;0.80;0.60;;;;;;;20.10;44.17;102084.91;19895560;29;20129;-69
2023/04/30 01:37:44;;;;;;;1.07;0.70;;;;;;;20.08;43.96;102095.00;19884729;29;20054;-70
2023/04/30 01:47:56;;;;;;;0.97;0.70;;;;;;;20.06;44.06;102087.97;19876972;29;20066;-69
2023/04/30 01:58:00;;;;;;;1.17;0.60;;;;;;;20.02;43.81;102089.19;19854920;29;20050;-69
2023/04/30 02:08:02;;;;;;;1.43;0.70;;;;;;;20.01;43.77;102082.94;19878360;29;20077;-69
2023/04/30 02:18:04;;;;;;;1.08;0.70;;;;;;;19.98;43.37;102094.84;19878509;29;20058;-69
2023/04/30 02:28:05;;;;;;;0.95;0.70;;;;;;;19.96;43.27;102090.56;19887925;29;20572;-69
2023/04/30 02:38:07;;;;;;;0.80;0.60;;;;;;;19.91;43.17;102088.22;19889083;29;20053;-69
2023/04/30 02:48:09;;;;;;;0.63;0.50;;;;;;;19.93;43.07;102082.69;19872300;29;20083;-69
2023/04/30 02:58:10;;;;;;;1.00;0.60;;;;;;;19.94;42.94;102087.13;19887483;29;20076;-69
2023/04/30 03:08:12;;;;;;;0.88;0.60;;;;;;;19.95;42.72;102075.31;19872073;29;20161;-69
2023/04/30 03:18:14;;;;;;;0.93;0.60;;;;;;;19.93;42.51;102080.00;19872717;29;20059;-69
2023/04/30 03:28:16;;;;;;;0.68;0.68;;;;;;;19.91;42.23;102080.09;19863055;29;20050;-69
2023/04/30 03:38:18;;;;;;;1.05;0.60;;;;;;;19.92;42.89;102100.75;19853211;29;20067;-70
2023/04/30 03:48:20;;;;;;;1.45;0.60;;;;;;;19.88;42.86;102096.53;19864937;29;20051;-69
2023/04/30 03:58:22;;;;;;;1.05;0.85;;;;;;;19.91;42.47;102100.88;19864298;29;20412;-69
2023/04/30 04:08:24;;;;;;;0.50;0.50;;;;;;;19.84;42.64;102093.19;19866993;29;20145;-69
2023/04/30 04:18:25;;;;;;;0.73;0.60;;;;;;;19.81;42.45;102106.94;19865004;29;20082;-69
2023/04/30 04:28:27;;;;;;;1.15;0.50;;;;;;;19.79;42.29;102119.72;19864559;29;20139;-69
2023/04/30 04:38:29;;;;;;;0.82;0.60;;;;;;;19.75;42.25;102115.53;19864027;29;20416;-69
2023/04/30 04:48:31;;;;;;;0.52;0.40;;;;;;;19.75;42.08;102133.59;19862213;29;20142;-69
2023/04/30 04:58:32;;;;;;;0.57;0.50;;;;;;;19.71;42.36;102143.78;19878432;29;20062;-69
2023/04/30 05:08:35;;;;;;;0.50;0.50;;;;;;;19.66;42.25;102148.69;19897921;29;20576;-69
2023/04/30 05:18:37;;;;;;;0.60;0.60;;;;;;;19.66;42.19;102154.06;19879740;29;20137;-69
2023/04/30 05:28:38;;;;;;;1.00;0.50;;;;;;;19.69;42.39;102175.44;19881219;29;20579;-69
2023/04/30 05:38:40;;;;;;;0.50;0.50;;;;;;;19.69;42.49;102168.22;19878845;29;20547;-69
2023/04/30 05:48:42;;;;;;;1.05;0.60;;;;;;;19.69;42.89;102170.94;19880990;29;20561;-69
2023/04/30 05:58:44;;;;;;;0.85;0.50;;;;;;;19.69;43.17;102173.63;19893704;29;20488;-69
2023/04/30 06:08:46;;;;;;;0.90;0.57;;;;;;;19.72;43.29;102183.31;19894817;29;20087;-69
2023/04/30 06:18:47;;;;;;;1.17;0.60;;;;;;;19.72;43.86;102167.09;19889451;29;20515;-71
2023/04/30 06:28:49;;;;;;;1.45;0.70;;;;;;;19.82;44.13;102176.22;19875360;29;20141;-71
2023/04/30 06:38:51;;;;;;;0.98;0.70;;;;;;;19.88;44.47;102180.31;19883455;29;20062;-71
2023/04/30 06:48:53;;;;;;;2.35;0.90;;;;;;;19.95;44.45;102178.03;19879100;29;20061;-71
2023/04/30 06:58:55;;;;;;;1.85;0.60;;;;;;;20.02;44.18;102156.78;19867829;29;20556;-71
2023/04/30 07:08:57;;;;;;;2.97;1.10;;;;;;;20.06;44.31;102169.94;19860088;29;20173;-71
2023/04/30 07:18:58;;;;;;;2.17;0.80;;;;;;;20.14;44.47;102166.66;19864215;29;20062;-69
2023/04/30 07:29:00;;;;;;;1.60;0.60;;;;;;;20.24;44.20;102174.88;19857150;29;20110;-71
2023/04/30 07:39:02;;;;;;;3.30;0.90;;;;;;;20.40;44.51;102177.22;19878452;29;20047;-70
2023/04/30 07:49:04;;;;;;;0.98;0.65;;;;;;;20.67;44.45;102176.03;19863607;29;20469;-71
2023/04/30 07:59:06;;;;;;;2.63;0.73;;;;;;;21.11;44.07;102166.13;19864637;29;20047;-70
2023/04/30 08:09:08;;;;;;;1.98;0.90;;;;;;;22.25;42.35;102181.03;19852130;29;20085;-70
2023/04/30 08:19:09;;;;;;;2.63;1.00;;;;;;;22.53;41.90;102187.63;19868422;29;20495;-70
2023/04/30 08:29:11;;;;;;;1.70;0.85;;;;;;;23.17;40.88;102181.97;19882138;29;20058;-70
2023/04/30 08:39:13;;;;;;;3.17;1.33;;;;;;;24.12;39.69;102204.03;19867979;29;20055;-70
2023/04/30 08:49:14;;;;;;;4.05;1.00;;;;;;;23.89;39.35;102203.47;19852972;29;20133;-71
2023/04/30 08:59:16;;;;;;;3.60;0.98;;;;;;;23.22;40.00;102201.41;19858332;29;20129;-70
2023/04/30 09:09:18;;;;;;;2.63;0.90;;;;;;;22.64;40.91;102197.53;19862838;29;20058;-71
2023/04/30 09:19:38;;;;;;;2.17;0.73;;;;;;;22.29;41.61;102199.59;19862125;29;20047;-68
2023/04/30 09:29:39;;;;;;;2.60;0.95;;;;;;;22.10;41.76;102189.53;19880777;29;20258;-68
2023/04/30 09:39:49;;;;;;;2.03;1.17;;;;;;;22.02;42.08;102182.03;19880057;29;20557;-68
2023/04/30 09:49:52;;;;;;;1.58;0.80;;;;;;;21.97;42.34;102178.00;19893304;29;20126;-68
2023/04/30 09:59:54;;;;;;;1.70;0.70;;;;;;;21.94;42.10;102167.41;19879277;29;20051;-68
2023/04/30 10:09:59;;;;;;;1.40;0.90;;;;;;;21.86;42.31;102171.66;19884741;29;20493;-68
2023/04/30 10:20:06;;;;;;;2.03;1.00;;;;;;;21.86;42.30;102140.97;19883978;29;20055;-68
2023/04/30 10:30:09;;;;;;;1.10;0.73;;;;;;;21.85;42.24;102142.81;19875193;29;20676;-68
2023/04/30 10:40:13;;;;;;;1.50;0.70;;;;;;;21.82;42.26;102142.22;19888508;29;20062;-69
2023/04/30 10:50:15;;;;;;;1.70;0.80;;;;;;;21.77;42.26;102129.09;19872504;29;20050;-68
2023/04/30 11:00:18;;;;;;;1.60;0.68;;;;;;;21.73;42.53;102117.63;19880058;29;20062;-68
2023/04/30 11:10:22;;;;;;;1.65;0.70;;;;;;;21.73;42.69;102105.94;19850655;29;20122;-69
2023/04/30 11:20:25;;;;;;;2.07;1.00;;;;;;;21.74;42.89;102096.81;19858244;29;20111;-68
2023/04/30 11:30:28;;;;;;;1.83;0.75;;;;;;;21.72;43.06;102088.81;19849526;29;20051;-68
2023/04/30 11:40:34;;;;;;;3.20;0.73;;;;;;;21.72;43.37;102077.97;19864047;29;20090;-69
2023/04/30 11:50:41;;;;;;;2.13;0.80;;;;;;;21.72;43.50;102072.53;19860795;29;20058;-68
2023/04/30 12:00:43;;;;;;;1.40;1.00;;;;;;;21.73;43.70;102051.75;19865276;29;20531;-69
2023/04/30 12:10:45;;;;;;;1.50;0.68;;;;;;;21.73;43.83;102051.75;19860454;29;20517;-68
2023/04/30 12:20:47;;;;;;;3.03;0.70;;;;;;;21.73;44.02;102035.47;19873391;29;20119;-70
2023/04/30 12:30:48;;;;;;;1.05;0.55;;;;;;;21.73;44.14;102020.06;19859922;29;20089;-68
2023/04/30 12:40:50;;;;;;;1.23;0.70;;;;;;;21.75;44.09;102017.22;19859121;29;20592;-68
2023/04/30 12:51:00;;;;;;;2.33;0.90;;;;;;;21.77;44.31;102008.94;19854452;29;20137;-68
2023/04/30 13:01:02;;;;;;;1.98;0.80;;;;;;;21.78;44.61;101988.97;19835971;29;20058;-67
2023/04/30 13:11:04;;;;;;;1.67;1.05;;;;;;;21.78;44.71;101979.00;19871184;29;20147;-68
2023/04/30 13:21:06;;;;;;;0.95;0.60;;;;;;;21.77;44.73;101971.88;19883867;29;20121;-68
2023/04/30 13:31:08;;;;;;;2.35;0.98;;;;;;;21.75;44.52;101963.03;19873925;29;20504;-67
2023/04/30 13:41:10;;;;;;;0.55;0.50;;;;;;;21.76;44.74;101948.47;19877992;29;20059;-67
2023/04/30 13:51:11;;;;;;;1.15;0.52;;;;;;;21.74;44.78;101934.19;19872382;29;20133;-67
2023/04/30 14:01:13;;;;;;;2.05;0.63;;;;;;;21.75;44.68;101930.50;19865037;29;20050;-67
2023/04/30 14:11:15;;;;;;;0.50;0.40;;;;;;;21.75;45.27;101922.38;19878817;29;20109;-67
2023/04/30 14:21:17;;;;;;;1.33;0.55;;;;;;;21.71;44.70;101912.81;19869606;29;20059;-67
2023/04/30 14:31:18;;;;;;;0.70;0.35;;;;;;;21.69;44.77;101903.94;19859598;29;20133;-69
2023/04/30 14:41:20;;;;;;;0.73;0.60;;;;;;;21.65;44.89;101902.47;19871127;29;20064;-67
2023/04/30 14:51:22;;;;;;;1.40;0.60;;;;;;;21.65;44.74;101883.50;19867127;29;20070;-65
2023/04/30 15:01:24;;;;;;;3.65;1.30;;;;;;;21.62;45.26;101876.50;19860830;29;20419;-66
2023/04/30 15:11:29;;;;;;;2.17;0.80;;;;;;;21.60;45.67;101859.53;19866229;29;20572;-65
2023/04/30 15:21:30;;;;;;;2.63;0.90;;;;;;;21.61;46.10;101858.53;19869937;29;20063;-67
2023/04/30 15:31:32;;;;;;;1.25;0.73;;;;;;;21.62;46.27;101859.38;19866689;29;20142;-65
2023/04/30 15:41:34;;;;;;;1.38;0.93;;;;;;;21.64;46.27;101852.00;19858353;29;20576;-65
2023/04/30 15:51:37;;;;;;;2.60;0.90;;;;;;;21.66;47.47;101855.44;19860976;29;20452;-65
2023/04/30 16:01:39;;;;;;;4.03;1.55;;;;;;;21.76;48.60;101837.34;19863242;29;20062;-66
2023/04/30 16:11:41;;;;;;;2.80;1.40;;;;;;;21.84;49.95;101823.94;19848830;29;20446;-64
2023/04/30 16:21:43;;;;;;;2.97;1.13;;;;;;;21.94;50.94;101814.97;19850683;29;20150;-65
2023/04/30 16:31:46;;;;;;;2.13;1.20;;;;;;;21.92;51.08;101815.13;19848536;29;20080;-67
2023/04/30 16:41:48;;;;;;;4.18;1.50;;;;;;;21.91;53.08;101810.72;19834735;29;20058;-67
2023/04/30 16:51:50;;;;;;;2.80;1.10;;;;;;;21.84;51.66;101798.69;19848716;29;20168;-65
2023/04/30 17:01:55;;;;;;;2.08;1.25;;;;;;;21.76;50.75;101791.28;19870969;29;20046;-66
2023/04/30 17:11:57;;;;;;;5.03;1.48;;;;;;;21.70;49.72;101786.44;19858093;29;20573;-65
2023/04/30 17:21:58;;;;;;;3.20;1.80;;;;;;;21.66;49.37;101775.00;19861084;29;20419;-65
2023/04/30 17:32:00;;;;;;;2.25;1.30;;;;;;;21.64;49.30;101781.53;19872894;29;20092;-65
2023/04/30 17:42:03;;;;;;;2.40;1.30;;;;;;;21.63;49.02;101769.81;19878412;29;20412;-65
2023/04/30 17:52:05;;;;;;;2.17;1.40;;;;;;;21.62;48.59;101761.81;19884552;29;20050;-65
2023/04/30 18:02:07;;;;;;;4.57;2.30;;;;;;;21.62;50.67;101759.09;19888168;29;20130;-65
2023/04/30 18:12:09;;;;;;;2.97;1.55;;;;;;;21.61;49.40;101754.69;19857140;29;20397;-65
2023/04/30 18:22:11;;;;;;;3.00;1.50;;;;;;;21.58;49.43;101751.25;19870603;29;20051;-65
2023/04/30 18:32:12;;;;;;;3.70;1.85;;;;;;;21.55;49.67;101751.53;19863299;29;20238;-65
2023/04/30 18:42:14;;;;;;;1.42;1.00;;;;;;;21.51;49.62;101743.84;19860322;29;20070;-65
2023/04/30 18:52:16;;;;;;;3.70;1.40;;;;;;;21.45;49.73;101745.25;19856907;29;20077;-65
2023/04/30 19:02:20;;;;;;;2.55;1.42;;;;;;;21.41;49.43;101751.97;19873619;29;20051;-64
2023/04/30 19:12:22;;;;;;;1.73;1.30;;;;;;;21.37;49.50;101745.09;19865346;29;20051;-65
2023/04/30 19:22:24;;;;;;;3.08;1.20;;;;;;;21.24;49.17;101731.81;19853076;29;20138;-65
2023/04/30 19:32:26;;;;;;;4.18;1.08;;;;;;;21.24;49.09;101748.94;19863717;29;20047;-66
2023/04/30 19:42:29;;;;;;;2.30;1.30;;;;;;;21.20;49.03;101761.00;19865164;29;20108;-66
2023/04/30 19:52:30;;;;;;;2.65;1.30;;;;;;;21.12;48.92;101750.00;19849076;29;20133;-66
2023/04/30 20:02:32;;;;;;;2.08;0.90;;;;;;;21.11;48.88;101751.00;19861756;29;20134;-66
2023/04/30 20:12:34;;;;;;;1.63;0.90;;;;;;;21.07;48.59;101750.44;19860128;29;20496;-66
2023/04/30 20:22:36;;;;;;;1.25;0.70;;;;;;;21.00;48.52;101742.00;19865140;29;20051;-66
2023/04/30 20:32:39;;;;;;;1.23;0.70;;;;;;;20.96;48.46;101732.44;19880424;29;20061;-66
2023/04/30 20:42:41;;;;;;;1.52;0.90;;;;;;;20.92;48.48;101728.28;19879206;29;20093;-66
2023/04/30 20:52:42;;;;;;;1.70;1.10;;;;;;;20.89;48.37;101720.44;19882409;29;20074;-66
2023/04/30 21:02:44;;;;;;;0.90;0.60;;;;;;;20.85;48.25;101710.91;19880629;29;20470;-66
2023/04/30 21:12:47;;;;;;;1.17;0.73;;;;;;;20.80;48.19;101691.50;19881841;29;20079;-66
2023/04/30 21:22:49;;;;;;;2.05;0.77;;;;;;;20.79;48.07;101692.50;19882321;29;20096;-66
2023/04/30 21:32:56;;;;;;;1.40;0.80;;;;;;;20.77;47.61;101687.19;19895279;29;20066;-66
2023/04/30 21:42:59;;;;;;;0.90;0.70;;;;;;;20.78;47.22;101688.06;19884551;29;20046;-66
2023/04/30 21:53:20;;;;;;;1.58;0.80;;;;;;;20.78;47.08;101682.63;19893256;29;20047;-66
2023/04/30 22:03:21;;;;;;;1.02;0.88;;;;;;;20.76;46.89;101673.78;19890382;29;20457;-66
2023/04/30 22:13:27;;;;;;;1.08;0.98;;;;;;;20.75;46.78;101672.94;19885970;29;20563;-66
2023/04/30 22:23:29;;;;;;;1.45;0.80;;;;;;;20.73;46.64;101656.81;19889926;29;20504;-66
2023/04/30 22:33:34;;;;;;;1.05;0.80;;;;;;;20.72;46.74;101657.81;19887860;29;20051;-66
2023/04/30 22:43:36;;;;;;;1.00;0.80;;;;;;;20.69;46.57;101663.50;19890864;29;20115;-66
2023/04/30 22:53:38;;;;;;;1.05;0.90;;;;;;;20.69;46.32;101651.84;19890636;29;20492;-66
2023/04/30 23:03:39;;;;;;;1.27;0.80;;;;;;;20.65;46.40;101642.28;19886798;29;20065;-66
2023/04/30 23:13:41;;;;;;;0.95;0.80;;;;;;;20.59;46.38;101638.25;19889428;29;20050;-66
2023/04/30 23:23:43;;;;;;;1.08;0.70;;;;;;;20.53;46.32;101636.94;19885687;29;20475;-66
2023/04/30 23:33:45;;;;;;;1.58;0.80;;;;;;;20.50;46.35;101620.16;19884818;29;20065;-66
2023/04/30 23:43:47;;;;;;;1.65;1.02;;;;;;;20.47;46.36;101617.72;19886351;29;20116;-66
2023/04/30 23:53:48;;;;;;;1.65;0.90;;;;;;;20.42;46.15;101602.75;19883683;29;20054;-66
